createdAt,value
2023-08-29T00:00:33.334Z,11.10
2023-08-29T00:03:05.258Z,11.10
2023-08-29T00:05:33.744Z,11.00
2023-08-29T00:08:03.552Z,11.00
2023-08-29T00:10:32.061Z,11.00
2023-08-29T00:13:00.736Z,10.90
2023-08-29T00:15:29.160Z,10.90
2023-08-29T00:17:57.729Z,11.00
2023-08-29T00:20:27.426Z,11.00
2023-08-29T00:22:57.040Z,11.00
2023-08-29T00:25:25.815Z,11.00
2023-08-29T00:27:54.437Z,11.00
2023-08-29T00:30:23.576Z,11.00
2023-08-29T00:32:53.507Z,11.00
2023-08-29T00:35:22.329Z,10.90
2023-08-29T00:37:52.413Z,10.90
2023-08-29T00:40:21.286Z,11.00
2023-08-29T00:42:53.646Z,10.90
2023-08-29T00:45:22.794Z,10.90
2023-08-29T00:47:51.550Z,10.90
2023-08-29T00:50:20.905Z,10.90
2023-08-29T00:52:51.335Z,10.90
2023-08-29T00:55:19.689Z,10.90
2023-08-29T00:57:48.301Z,10.90
2023-08-29T01:00:18.066Z,10.90
2023-08-29T01:02:49.123Z,10.80
2023-08-29T01:05:18.994Z,10.80
2023-08-29T01:07:48.404Z,10.80
2023-08-29T01:10:18.965Z,10.80
2023-08-29T01:12:55.557Z,10.90
2023-08-29T01:15:28.408Z,10.90
2023-08-29T01:18:03.108Z,10.80
2023-08-29T01:20:33.033Z,10.80
2023-08-29T01:23:14.794Z,10.80
2023-08-29T01:25:53.250Z,10.80
2023-08-29T01:28:24.220Z,10.80
2023-08-29T01:30:53.582Z,10.80
2023-08-29T01:33:25.512Z,10.80
2023-08-29T01:35:53.952Z,10.80
2023-08-29T01:38:23.911Z,10.80
2023-08-29T01:40:52.554Z,10.80
2023-08-29T01:43:22.487Z,10.80
2023-08-29T01:45:52.493Z,10.90
2023-08-29T01:48:21.778Z,10.90
2023-08-29T01:50:51.545Z,11.00
2023-08-29T01:53:19.838Z,11.00
2023-08-29T01:55:50.802Z,10.90
2023-08-29T01:58:21.466Z,10.90
2023-08-29T02:00:53.190Z,10.90
2023-08-29T02:03:24.497Z,10.80
2023-08-29T02:05:53.877Z,10.80
2023-08-29T02:08:23.165Z,10.80
2023-08-29T02:10:51.695Z,10.80
2023-08-29T02:13:20.997Z,10.70
2023-08-29T02:15:51.249Z,10.70
2023-08-29T02:18:19.716Z,10.80
2023-08-29T02:20:48.777Z,10.80
2023-08-29T02:23:17.109Z,10.90
2023-08-29T02:25:46.107Z,10.90
2023-08-29T02:28:15.809Z,10.90
2023-08-29T02:30:45.376Z,11.00
2023-08-29T02:33:15.851Z,11.00
2023-08-29T02:35:44.785Z,11.10
2023-08-29T02:38:13.496Z,11.20
2023-08-29T02:40:42.074Z,11.20
2023-08-29T02:43:10.845Z,11.30
2023-08-29T02:45:39.400Z,11.40
2023-08-29T02:48:11.320Z,11.40
2023-08-29T02:50:41.789Z,11.40
2023-08-29T02:53:10.766Z,11.50
2023-08-29T02:55:38.979Z,11.50
2023-08-29T02:58:07.771Z,11.60
2023-08-29T03:00:37.277Z,11.60
2023-08-29T03:03:06.498Z,11.60
2023-08-29T03:05:35.224Z,11.60
2023-08-29T03:08:07.773Z,11.60
2023-08-29T03:10:38.118Z,11.70
2023-08-29T03:13:06.824Z,11.70
2023-08-29T03:15:35.950Z,11.80
2023-08-29T03:18:05.821Z,11.90
2023-08-29T03:20:35.191Z,11.90
2023-08-29T03:23:04.342Z,11.90
2023-08-29T03:25:34.525Z,11.90
2023-08-29T03:28:04.457Z,11.90
2023-08-29T03:30:34.208Z,12.00
2023-08-29T03:33:03.450Z,12.00
2023-08-29T03:35:32.021Z,11.90
2023-08-29T03:38:02.266Z,11.90
2023-08-29T03:40:31.510Z,11.90
2023-08-29T03:43:01.482Z,11.90
2023-08-29T03:45:30.027Z,11.90
2023-08-29T03:47:58.699Z,11.90
2023-08-29T03:50:27.320Z,11.90
2023-08-29T03:52:55.519Z,11.90
2023-08-29T03:55:26.140Z,11.90
2023-08-29T03:57:54.307Z,11.90
2023-08-29T04:00:24.685Z,11.90
2023-08-29T04:02:54.119Z,11.80
2023-08-29T04:05:25.917Z,11.80
2023-08-29T04:07:55.634Z,11.80
2023-08-29T04:10:24.187Z,11.80
2023-08-29T04:12:52.379Z,11.80
2023-08-29T04:15:25.261Z,11.80
2023-08-29T04:17:54.900Z,11.80
2023-08-29T04:20:25.264Z,11.80
2023-08-29T04:22:54.732Z,11.80
2023-08-29T04:25:23.786Z,11.80
2023-08-29T04:27:52.400Z,11.80
2023-08-29T04:30:21.464Z,11.80
2023-08-29T04:32:51.685Z,11.80
2023-08-29T04:35:22.818Z,11.80
2023-08-29T04:37:51.266Z,11.80
2023-08-29T04:40:22.590Z,11.70
2023-08-29T04:42:54.462Z,11.70
2023-08-29T04:45:24.726Z,11.70
2023-08-29T04:47:54.408Z,11.70
2023-08-29T04:50:26.652Z,11.70
2023-08-29T04:52:56.976Z,11.70
2023-08-29T04:55:26.326Z,11.70
2023-08-29T04:57:57.759Z,11.70
2023-08-29T05:00:27.082Z,11.70
2023-08-29T05:02:59.185Z,11.70
2023-08-29T05:05:27.997Z,11.70
2023-08-29T05:07:57.056Z,11.70
2023-08-29T05:10:31.471Z,11.70
2023-08-29T05:13:00.637Z,11.80
2023-08-29T05:15:30.058Z,11.80
2023-08-29T05:18:00.841Z,11.80
2023-08-29T05:20:29.617Z,11.80
2023-08-29T05:22:57.774Z,11.80
2023-08-29T05:25:27.720Z,11.80
2023-08-29T05:27:56.900Z,11.90
2023-08-29T05:30:25.464Z,11.90
2023-08-29T05:32:56.620Z,12.00
2023-08-29T05:35:26.454Z,12.00
2023-08-29T05:37:57.031Z,12.10
2023-08-29T05:40:25.292Z,12.10
2023-08-29T05:42:54.350Z,12.10
2023-08-29T05:45:23.314Z,12.10
2023-08-29T05:47:53.305Z,12.10
2023-08-29T05:50:22.127Z,12.10
2023-08-29T05:52:53.100Z,12.20
2023-08-29T05:55:21.369Z,12.20
2023-08-29T05:57:49.744Z,12.30
2023-08-29T06:00:20.373Z,12.30
2023-08-29T06:02:50.349Z,12.40
2023-08-29T06:05:18.934Z,12.40
2023-08-29T06:07:47.701Z,12.50
2023-08-29T06:10:17.906Z,12.60
2023-08-29T06:12:46.755Z,12.70
2023-08-29T06:15:15.026Z,12.70
2023-08-29T06:17:43.184Z,12.80
2023-08-29T06:20:12.714Z,12.80
2023-08-29T06:22:41.043Z,12.80
2023-08-29T06:25:11.469Z,12.90
2023-08-29T06:27:41.498Z,12.90
2023-08-29T06:30:14.207Z,13.00
2023-08-29T06:32:42.844Z,13.00
2023-08-29T06:35:12.570Z,13.10
2023-08-29T06:37:41.846Z,13.20
2023-08-29T06:40:11.736Z,13.20
2023-08-29T06:42:41.654Z,13.30
2023-08-29T06:45:11.765Z,13.40
2023-08-29T06:47:40.632Z,13.50
2023-08-29T06:50:10.169Z,13.50
2023-08-29T06:52:38.542Z,13.60
2023-08-29T06:55:08.501Z,13.60
2023-08-29T06:57:37.004Z,13.70
2023-08-29T07:00:08.041Z,13.80
2023-08-29T07:02:37.854Z,13.90
2023-08-29T07:05:07.209Z,13.90
2023-08-29T07:07:37.552Z,14.10
2023-08-29T07:10:08.555Z,14.10
2023-08-29T07:12:38.556Z,14.20
2023-08-29T07:15:10.844Z,14.30
2023-08-29T07:17:47.417Z,14.40
2023-08-29T07:20:17.206Z,14.40
2023-08-29T07:22:45.897Z,14.50
2023-08-29T07:25:14.612Z,14.60
2023-08-29T07:27:44.039Z,14.70
2023-08-29T07:30:16.595Z,14.80
2023-08-29T07:32:46.582Z,14.90
2023-08-29T07:35:15.283Z,14.90
2023-08-29T07:37:46.971Z,14.90
2023-08-29T07:40:19.350Z,14.90
2023-08-29T07:42:49.157Z,14.90
2023-08-29T07:45:19.224Z,15.00
2023-08-29T07:47:48.552Z,15.20
2023-08-29T07:50:16.881Z,15.40
2023-08-29T07:52:46.375Z,15.50
2023-08-29T07:55:15.147Z,15.70
2023-08-29T07:57:44.555Z,15.90
2023-08-29T08:00:15.100Z,16.10
2023-08-29T08:02:46.124Z,16.30
2023-08-29T08:05:15.918Z,16.40
2023-08-29T08:07:45.649Z,16.50
2023-08-29T08:10:15.321Z,16.60
2023-08-29T08:12:44.495Z,16.70
2023-08-29T08:15:12.966Z,16.80
2023-08-29T08:17:41.452Z,16.80
2023-08-29T08:20:13.384Z,16.80
2023-08-29T08:22:43.211Z,16.80
2023-08-29T08:25:13.734Z,16.90
2023-08-29T08:27:44.840Z,17.00
2023-08-29T08:30:13.926Z,17.00
2023-08-29T08:32:44.451Z,17.00
2023-08-29T08:35:14.206Z,17.00
2023-08-29T08:37:42.797Z,17.10
2023-08-29T08:40:14.068Z,17.20
2023-08-29T08:42:45.724Z,17.40
2023-08-29T08:45:17.034Z,17.50
2023-08-29T08:47:47.954Z,17.60
2023-08-29T08:50:17.835Z,17.70
2023-08-29T08:52:47.252Z,17.70
2023-08-29T08:55:17.450Z,17.80
2023-08-29T08:57:51.933Z,17.90
2023-08-29T09:00:21.976Z,18.00
2023-08-29T09:02:51.312Z,18.00
2023-08-29T09:05:22.672Z,18.10
2023-08-29T09:07:51.725Z,18.20
2023-08-29T09:10:23.083Z,18.40
2023-08-29T09:12:54.551Z,18.20
2023-08-29T09:15:25.234Z,18.20
2023-08-29T09:17:55.440Z,18.30
2023-08-29T09:20:30.781Z,18.30
2023-08-29T09:22:59.663Z,18.40
2023-08-29T09:25:29.755Z,18.50
2023-08-29T09:28:00.215Z,18.60
2023-08-29T09:30:28.764Z,18.60
2023-08-29T09:33:04.824Z,18.70
2023-08-29T09:35:36.509Z,18.60
2023-08-29T09:38:06.842Z,18.70
2023-08-29T09:40:49.955Z,18.70
2023-08-29T09:43:20.535Z,18.80
2023-08-29T09:45:53.818Z,18.90
2023-08-29T09:48:24.019Z,19.00
2023-08-29T09:50:55.981Z,19.00
2023-08-29T09:53:26.512Z,19.00
2023-08-29T09:56:02.022Z,19.00
2023-08-29T09:58:34.959Z,19.00
2023-08-29T10:01:06.101Z,19.00
2023-08-29T10:03:37.741Z,18.90
2023-08-29T10:06:15.650Z,19.00
2023-08-29T10:08:47.932Z,19.00
2023-08-29T10:11:16.496Z,19.10
2023-08-29T10:13:47.296Z,19.10
2023-08-29T10:16:17.444Z,19.00
2023-08-29T10:18:50.539Z,19.00
2023-08-29T10:21:24.058Z,19.00
2023-08-29T10:23:53.286Z,19.00
2023-08-29T10:26:26.725Z,19.00
2023-08-29T10:28:57.321Z,19.00
2023-08-29T10:31:26.805Z,19.00
2023-08-29T10:33:57.302Z,19.10
2023-08-29T10:36:27.866Z,19.10
2023-08-29T10:39:01.236Z,19.10
2023-08-29T10:41:48.909Z,18.90
2023-08-29T10:44:43.636Z,19.10
2023-08-29T10:47:21.191Z,19.10
2023-08-29T10:49:50.322Z,19.10
2023-08-29T10:52:23.054Z,18.90
2023-08-29T10:55:04.864Z,18.90
2023-08-29T10:57:33.451Z,19.10
2023-08-29T11:00:02.470Z,19.30
2023-08-29T11:02:33.803Z,19.40
2023-08-29T11:05:17.133Z,19.60
2023-08-29T11:07:48.146Z,19.90
2023-08-29T11:10:18.790Z,20.10
2023-08-29T11:13:10.687Z,20.20
2023-08-29T11:16:19.059Z,20.40
2023-08-29T11:18:49.489Z,20.80
2023-08-29T11:21:20.706Z,21.00
2023-08-29T11:24:01.761Z,21.20
2023-08-29T11:26:41.549Z,21.30
2023-08-29T11:29:11.179Z,21.30
2023-08-29T11:31:41.914Z,21.00
2023-08-29T11:34:18.690Z,21.00
2023-08-29T11:36:49.841Z,21.00
2023-08-29T11:39:22.833Z,20.90
2023-08-29T11:42:11.293Z,21.10
2023-08-29T11:45:03.595Z,21.30
2023-08-29T11:47:31.444Z,21.50
2023-08-29T11:50:00.470Z,21.50
2023-08-29T11:52:30.060Z,21.50
2023-08-29T11:55:02.172Z,21.30
2023-08-29T11:57:31.681Z,21.50
2023-08-29T12:00:00.289Z,21.70
2023-08-29T12:02:33.496Z,22.20
2023-08-29T12:05:01.729Z,22.40
2023-08-29T12:07:34.672Z,22.70
2023-08-29T12:10:11.791Z,22.50
2023-08-29T12:12:41.553Z,22.70
2023-08-29T12:15:12.167Z,22.70
2023-08-29T12:17:43.308Z,22.80
2023-08-29T12:20:37.799Z,22.90
2023-08-29T12:23:07.138Z,23.10
2023-08-29T12:25:40.469Z,23.30
2023-08-29T12:28:13.709Z,23.20
2023-08-29T12:30:43.514Z,23.10
2023-08-29T12:33:13.176Z,23.10
2023-08-29T12:35:42.737Z,23.10
2023-08-29T12:38:12.186Z,23.00
2023-08-29T12:40:45.677Z,23.30
2023-08-29T12:43:17.701Z,23.50
2023-08-29T12:45:58.351Z,23.70
2023-08-29T12:48:28.855Z,24.00
2023-08-29T12:50:59.034Z,24.70
2023-08-29T12:53:28.950Z,25.30
2023-08-29T12:56:01.449Z,25.90
2023-08-29T12:58:32.111Z,26.10
2023-08-29T13:01:03.310Z,26.20
2023-08-29T13:03:32.498Z,26.40
2023-08-29T13:06:00.960Z,26.70
2023-08-29T13:08:31.304Z,27.00
2023-08-29T13:11:01.024Z,27.30
2023-08-29T13:13:29.689Z,27.50
2023-08-29T13:15:59.882Z,27.50
2023-08-29T13:18:29.233Z,27.50
2023-08-29T13:20:58.288Z,27.80
2023-08-29T13:23:27.828Z,28.20
2023-08-29T13:25:59.393Z,28.50
2023-08-29T13:28:31.592Z,28.60
2023-08-29T13:31:03.074Z,28.00
2023-08-29T13:33:32.366Z,27.70
2023-08-29T13:36:01.498Z,27.30
2023-08-29T13:38:30.509Z,27.10
2023-08-29T13:41:03.088Z,26.90
2023-08-29T13:43:32.959Z,26.70
2023-08-29T13:46:03.757Z,26.50
2023-08-29T13:48:34.272Z,26.40
2023-08-29T13:51:03.691Z,26.30
2023-08-29T13:53:33.977Z,26.40
2023-08-29T13:56:02.217Z,26.90
2023-08-29T13:58:30.641Z,27.60
2023-08-29T14:01:00.429Z,28.20
2023-08-29T14:03:38.932Z,28.30
2023-08-29T14:06:09.984Z,28.10
2023-08-29T14:08:38.333Z,27.70
2023-08-29T14:11:08.358Z,27.10
2023-08-29T14:13:36.838Z,26.60
2023-08-29T14:16:07.270Z,26.10
2023-08-29T14:18:37.585Z,25.60
2023-08-29T14:21:06.101Z,25.30
2023-08-29T14:23:34.814Z,25.00
2023-08-29T14:26:03.005Z,24.30
2023-08-29T14:28:31.692Z,24.10
2023-08-29T14:31:00.451Z,24.00
2023-08-29T14:33:30.810Z,23.30
2023-08-29T14:36:00.013Z,23.40
2023-08-29T14:38:31.003Z,23.30
2023-08-29T14:41:08.068Z,23.10
2023-08-29T14:43:37.949Z,23.00
2023-08-29T14:46:06.493Z,22.90
2023-08-29T14:48:38.521Z,22.70
2023-08-29T14:51:07.931Z,22.50
2023-08-29T14:53:41.233Z,22.40
2023-08-29T14:56:10.540Z,22.30
2023-08-29T14:58:39.781Z,22.30
2023-08-29T15:01:08.799Z,22.30
2023-08-29T15:03:39.861Z,22.40
2023-08-29T15:06:12.702Z,22.40
2023-08-29T15:08:43.302Z,22.40
2023-08-29T15:11:12.081Z,22.30
2023-08-29T15:13:43.398Z,22.20
2023-08-29T15:16:11.631Z,21.70
2023-08-29T15:18:41.778Z,21.40
2023-08-29T15:21:10.036Z,21.30
2023-08-29T15:23:38.760Z,21.30
2023-08-29T15:26:07.096Z,21.30
2023-08-29T15:28:35.692Z,21.30
2023-08-29T15:31:05.033Z,21.20
2023-08-29T15:34:02.463Z,21.30
2023-08-29T15:36:32.027Z,21.50
2023-08-29T15:39:00.417Z,21.80
2023-08-29T15:41:29.057Z,22.00
2023-08-29T15:43:59.188Z,22.10
2023-08-29T15:46:28.225Z,22.30
2023-08-29T15:48:56.821Z,22.60
2023-08-29T15:51:26.129Z,22.90
2023-08-29T15:53:57.135Z,22.70
2023-08-29T15:56:25.320Z,22.60
2023-08-29T15:58:54.801Z,22.60
2023-08-29T16:01:23.314Z,22.50
2023-08-29T16:03:53.590Z,22.40
2023-08-29T16:06:22.431Z,22.40
2023-08-29T16:08:51.577Z,22.20
2023-08-29T16:11:21.798Z,22.20
2023-08-29T16:13:50.678Z,22.30
2023-08-29T16:16:19.772Z,22.30
2023-08-29T16:18:48.462Z,22.30
2023-08-29T16:21:19.109Z,22.30
2023-08-29T16:23:48.421Z,22.20
2023-08-29T16:26:17.814Z,22.20
2023-08-29T16:28:48.138Z,22.10
2023-08-29T16:31:16.598Z,22.00
2023-08-29T16:33:46.729Z,21.90
2023-08-29T16:36:15.375Z,21.80
2023-08-29T16:38:43.693Z,21.70
2023-08-29T16:41:12.798Z,21.50
2023-08-29T16:43:43.032Z,21.20
2023-08-29T16:46:14.738Z,20.80
2023-08-29T16:48:43.420Z,20.30
2023-08-29T16:51:12.913Z,19.70
2023-08-29T16:53:41.485Z,19.10
2023-08-29T16:56:10.300Z,18.70
2023-08-29T16:58:38.993Z,18.60
2023-08-29T17:01:07.152Z,18.50
2023-08-29T17:03:37.130Z,18.40
2023-08-29T17:06:07.828Z,18.20
2023-08-29T17:08:36.212Z,17.80
2023-08-29T17:11:04.671Z,17.30
2023-08-29T17:13:33.619Z,17.20
2023-08-29T17:16:01.920Z,17.10
2023-08-29T17:18:30.310Z,17.10
2023-08-29T17:21:00.123Z,17.10
2023-08-29T17:23:28.688Z,17.20
2023-08-29T17:25:58.361Z,17.30
2023-08-29T17:28:26.934Z,17.50
2023-08-29T17:30:55.730Z,17.60
2023-08-29T17:33:26.528Z,17.70
2023-08-29T17:35:55.372Z,17.80
2023-08-29T17:38:26.522Z,17.80
2023-08-29T17:40:55.241Z,17.80
2023-08-29T17:43:25.071Z,17.70
2023-08-29T17:45:57.075Z,17.50
2023-08-29T17:48:27.304Z,17.50
2023-08-29T17:50:59.914Z,17.40
2023-08-29T17:53:30.409Z,17.30
2023-08-29T17:55:59.550Z,17.30
2023-08-29T17:58:30.450Z,17.10
2023-08-29T18:01:01.172Z,17.00
2023-08-29T18:03:31.324Z,17.00
2023-08-29T18:06:10.628Z,16.90
2023-08-29T18:08:49.877Z,16.90
2023-08-29T18:11:20.173Z,16.90
2023-08-29T18:13:48.660Z,16.90
2023-08-29T18:16:17.211Z,16.80
2023-08-29T18:18:46.971Z,16.80
2023-08-29T18:21:15.344Z,16.70
2023-08-29T18:23:43.836Z,16.70
2023-08-29T18:26:14.469Z,16.60
2023-08-29T18:28:43.010Z,16.50
2023-08-29T18:31:11.998Z,16.20
2023-08-29T18:33:40.293Z,16.10
2023-08-29T18:36:09.123Z,15.80
2023-08-29T18:38:37.780Z,15.70
2023-08-29T18:41:06.576Z,15.60
2023-08-29T18:43:36.242Z,15.60
2023-08-29T18:46:04.431Z,15.50
2023-08-29T18:48:33.129Z,15.40
2023-08-29T18:51:02.856Z,15.30
2023-08-29T18:53:31.299Z,15.20
2023-08-29T18:55:59.913Z,15.20
2023-08-29T18:58:28.600Z,15.10
2023-08-29T19:00:58.489Z,14.90
2023-08-29T19:03:26.925Z,14.80
2023-08-29T19:05:56.113Z,14.70
2023-08-29T19:08:25.075Z,14.60
2023-08-29T19:10:55.637Z,14.40
2023-08-29T19:13:24.208Z,14.40
2023-08-29T19:15:53.014Z,14.30
2023-08-29T19:18:23.457Z,14.20
2023-08-29T19:20:52.189Z,14.20
2023-08-29T19:23:21.415Z,14.10
2023-08-29T19:25:50.128Z,14.10
2023-08-29T19:28:18.634Z,14.10
2023-08-29T19:30:47.099Z,14.10
2023-08-29T19:33:15.418Z,14.00
2023-08-29T19:35:45.670Z,14.00
2023-08-29T19:38:14.314Z,13.90
2023-08-29T19:40:42.846Z,13.90
2023-08-29T19:43:11.454Z,13.90
2023-08-29T19:45:41.709Z,13.90
2023-08-29T19:48:10.707Z,13.80
2023-08-29T19:50:39.570Z,13.70
2023-08-29T19:53:09.623Z,13.70
2023-08-29T19:55:38.941Z,13.50
2023-08-29T19:58:07.596Z,13.40
2023-08-29T20:00:35.956Z,13.30
2023-08-29T20:03:04.855Z,13.30
2023-08-29T20:05:33.170Z,13.20
2023-08-29T20:08:04.263Z,13.20
2023-08-29T20:10:36.913Z,13.10
2023-08-29T20:13:39.177Z,13.10
2023-08-29T20:16:07.682Z,13.10
2023-08-29T20:18:36.886Z,13.10
2023-08-29T20:21:05.833Z,13.10
2023-08-29T20:23:42.002Z,13.10
2023-08-29T20:26:24.081Z,13.00
2023-08-29T20:28:53.679Z,13.10
2023-08-29T20:31:24.629Z,13.10
2023-08-29T20:33:53.036Z,13.10
2023-08-29T20:36:22.660Z,13.20
2023-08-29T20:38:52.505Z,13.10
2023-08-29T20:41:23.378Z,13.10
2023-08-29T20:43:51.957Z,13.10
2023-08-29T20:46:22.581Z,13.10
2023-08-29T20:48:52.924Z,13.00
2023-08-29T20:51:21.402Z,12.90
2023-08-29T20:53:49.773Z,12.90
2023-08-29T20:56:18.993Z,12.90
2023-08-29T20:58:49.414Z,13.00
2023-08-29T21:01:20.272Z,13.10
2023-08-29T21:03:49.091Z,13.20
2023-08-29T21:06:17.674Z,13.20
2023-08-29T21:08:47.280Z,13.30
2023-08-29T21:11:16.530Z,13.50
2023-08-29T21:13:50.072Z,13.50
2023-08-29T21:16:19.229Z,13.60
2023-08-29T21:18:48.153Z,13.60
2023-08-29T21:21:18.124Z,13.70
2023-08-29T21:23:49.804Z,13.70
2023-08-29T21:26:18.635Z,13.70
2023-08-29T21:28:50.022Z,13.80
2023-08-29T21:31:20.893Z,13.70
2023-08-29T21:33:49.998Z,13.80
2023-08-29T21:36:20.906Z,13.80
2023-08-29T21:38:50.146Z,13.80
2023-08-29T21:41:18.864Z,13.80
2023-08-29T21:43:48.952Z,13.80
2023-08-29T21:46:17.564Z,13.90
2023-08-29T21:48:46.512Z,14.00
2023-08-29T21:51:19.201Z,14.00
2023-08-29T21:53:52.482Z,14.00
2023-08-29T21:56:23.768Z,13.90
2023-08-29T21:58:54.055Z,14.00
2023-08-29T22:01:28.237Z,14.00
2023-08-29T22:03:56.901Z,13.90
2023-08-29T22:06:25.348Z,14.00
2023-08-29T22:08:56.052Z,13.90
2023-08-29T22:11:25.521Z,13.90
2023-08-29T22:13:55.588Z,13.90
2023-08-29T22:16:25.285Z,13.90
2023-08-29T22:18:55.236Z,13.90
2023-08-29T22:21:24.673Z,13.90
2023-08-29T22:23:53.242Z,13.90
2023-08-29T22:26:23.628Z,13.90
2023-08-29T22:28:53.812Z,13.90
2023-08-29T22:31:24.038Z,14.00
2023-08-29T22:33:52.860Z,14.10
2023-08-29T22:36:21.530Z,14.00
2023-08-29T22:38:50.079Z,14.00
2023-08-29T22:41:32.497Z,14.00
2023-08-29T22:44:05.918Z,13.90
2023-08-29T22:46:35.982Z,13.90
2023-08-29T22:49:04.612Z,13.80
2023-08-29T22:51:33.264Z,13.80
2023-08-29T22:54:01.924Z,13.80
2023-08-29T22:56:30.892Z,13.80
2023-08-29T22:58:59.723Z,13.80
2023-08-29T23:01:28.863Z,13.70
2023-08-29T23:03:58.813Z,13.70
2023-08-29T23:06:27.876Z,13.70
2023-08-29T23:09:06.312Z,13.70
2023-08-29T23:11:35.193Z,13.70
2023-08-29T23:14:16.548Z,13.70
2023-08-29T23:16:47.370Z,13.60
2023-08-29T23:19:17.560Z,13.60
2023-08-29T23:21:46.346Z,13.60
2023-08-29T23:24:15.340Z,13.50
2023-08-29T23:26:43.697Z,13.40
2023-08-29T23:29:13.552Z,13.40
2023-08-29T23:31:41.986Z,13.30
2023-08-29T23:34:11.240Z,13.40
2023-08-29T23:36:41.350Z,13.40
2023-08-29T23:39:10.886Z,13.40
2023-08-29T23:41:39.666Z,13.40
2023-08-29T23:44:09.971Z,13.40
2023-08-29T23:46:38.926Z,13.30
2023-08-29T23:49:08.489Z,13.20
2023-08-29T23:51:37.408Z,13.10
2023-08-29T23:54:07.964Z,13.10
2023-08-29T23:56:36.430Z,13.10
2023-08-29T23:59:05.669Z,13.00
